sensor_id;sensor_type;location;lat;lon;timestamp;temperature;humidity
12959;DHT22;6544;51.666;6.634;2023-07-02T00:01:49;18.20;1.00
12959;DHT22;6544;51.666;6.634;2023-07-02T00:04:17;18.10;1.00
12959;DHT22;6544;51.666;6.634;2023-07-02T00:06:45;18.00;36.20
12959;DHT22;6544;51.666;6.634;2023-07-02T00:09:13;18.00;93.50
12959;DHT22;6544;51.666;6.634;2023-07-02T00:11:42;18.10;1.00
12959;DHT22;6544;51.666;6.634;2023-07-02T00:14:09;18.10;1.00
12959;DHT22;6544;51.666;6.634;2023-07-02T00:16:38;18.00;1.00
12959;DHT22;6544;51.666;6.634;2023-07-02T00:19:05;18.10;1.00
12959;DHT22;6544;51.666;6.634;2023-07-02T00:21:32;18.10;1.00
12959;DHT22;6544;51.666;6.634;2023-07-02T00:23:59;18.10;1.00
12959;DHT22;6544;51.666;6.634;2023-07-02T00:26:28;18.20;1.00
12959;DHT22;6544;51.666;6.634;2023-07-02T00:28:55;18.10;1.00
12959;DHT22;6544;51.666;6.634;2023-07-02T00:31:23;18.20;1.00
12959;DHT22;6544;51.666;6.634;2023-07-02T00:33:50;18.20;1.00
12959;DHT22;6544;51.666;6.634;2023-07-02T00:36:17;18.20;1.00
12959;DHT22;6544;51.666;6.634;2023-07-02T00:38:46;18.10;1.00
12959;DHT22;6544;51.666;6.634;2023-07-02T00:41:13;17.90;1.00
12959;DHT22;6544;51.666;6.634;2023-07-02T00:43:41;18.00;1.00
12959;DHT22;6544;51.666;6.634;2023-07-02T00:46:12;18.00;1.00
12959;DHT22;6544;51.666;6.634;2023-07-02T00:48:40;18.10;1.00
12959;DHT22;6544;51.666;6.634;2023-07-02T00:51:08;18.10;99.90
12959;DHT22;6544;51.666;6.634;2023-07-02T00:53:35;18.00;1.00
12959;DHT22;6544;51.666;6.634;2023-07-02T00:56:02;17.80;1.00
12959;DHT22;6544;51.666;6.634;2023-07-02T00:58:29;17.90;1.00
12959;DHT22;6544;51.666;6.634;2023-07-02T01:00:58;17.80;1.00
12959;DHT22;6544;51.666;6.634;2023-07-02T01:03:25;17.90;1.00
12959;DHT22;6544;51.666;6.634;2023-07-02T01:05:52;17.80;1.00
12959;DHT22;6544;51.666;6.634;2023-07-02T01:08:18;17.90;1.00
12959;DHT22;6544;51.666;6.634;2023-07-02T01:10:45;17.90;1.00
12959;DHT22;6544;51.666;6.634;2023-07-02T01:13:16;17.90;99.90
12959;DHT22;6544;51.666;6.634;2023-07-02T01:15:45;17.90;99.90
12959;DHT22;6544;51.666;6.634;2023-07-02T01:18:14;17.90;99.90
12959;DHT22;6544;51.666;6.634;2023-07-02T01:20:43;17.80;99.90
12959;DHT22;6544;51.666;6.634;2023-07-02T01:23:11;17.70;99.90
12959;DHT22;6544;51.666;6.634;2023-07-02T01:25:38;17.60;1.00
12959;DHT22;6544;51.666;6.634;2023-07-02T01:28:04;17.60;99.90
12959;DHT22;6544;51.666;6.634;2023-07-02T01:30:31;17.50;99.90
12959;DHT22;6544;51.666;6.634;2023-07-02T01:32:58;17.60;99.90
12959;DHT22;6544;51.666;6.634;2023-07-02T01:35:25;17.70;99.90
12959;DHT22;6544;51.666;6.634;2023-07-02T01:37:53;17.60;99.90
12959;DHT22;6544;51.666;6.634;2023-07-02T01:40:20;17.60;99.90
12959;DHT22;6544;51.666;6.634;2023-07-02T01:42:47;17.60;99.90
12959;DHT22;6544;51.666;6.634;2023-07-02T01:45:14;17.60;99.90
12959;DHT22;6544;51.666;6.634;2023-07-02T01:47:41;17.50;99.90
12959;DHT22;6544;51.666;6.634;2023-07-02T01:50:08;17.50;99.90
12959;DHT22;6544;51.666;6.634;2023-07-02T01:52:35;17.50;99.90
12959;DHT22;6544;51.666;6.634;2023-07-02T01:55:04;17.40;99.90
12959;DHT22;6544;51.666;6.634;2023-07-02T01:57:31;17.50;99.90
12959;DHT22;6544;51.666;6.634;2023-07-02T01:59:58;17.50;99.90
12959;DHT22;6544;51.666;6.634;2023-07-02T02:02:25;17.50;99.90
12959;DHT22;6544;51.666;6.634;2023-07-02T02:04:52;17.60;99.90
12959;DHT22;6544;51.666;6.634;2023-07-02T02:07:19;17.60;99.90
12959;DHT22;6544;51.666;6.634;2023-07-02T02:09:45;17.50;99.90
12959;DHT22;6544;51.666;6.634;2023-07-02T02:12:14;17.50;99.90
12959;DHT22;6544;51.666;6.634;2023-07-02T02:14:40;17.50;99.90
12959;DHT22;6544;51.666;6.634;2023-07-02T02:17:07;17.50;99.90
12959;DHT22;6544;51.666;6.634;2023-07-02T02:19:34;17.50;99.90
12959;DHT22;6544;51.666;6.634;2023-07-02T02:22:01;17.60;99.90
12959;DHT22;6544;51.666;6.634;2023-07-02T02:24:28;17.60;99.90
12959;DHT22;6544;51.666;6.634;2023-07-02T02:26:55;17.50;99.90
12959;DHT22;6544;51.666;6.634;2023-07-02T02:29:24;17.50;99.90
12959;DHT22;6544;51.666;6.634;2023-07-02T02:31:51;17.30;99.90
12959;DHT22;6544;51.666;6.634;2023-07-02T02:34:17;17.20;99.90
12959;DHT22;6544;51.666;6.634;2023-07-02T02:36:44;17.00;99.90
12959;DHT22;6544;51.666;6.634;2023-07-02T02:39:12;16.70;99.90
12959;DHT22;6544;51.666;6.634;2023-07-02T02:41:39;16.70;33.00
12959;DHT22;6544;51.666;6.634;2023-07-02T02:44:06;16.60;1.00
12959;DHT22;6544;51.666;6.634;2023-07-02T02:46:34;16.50;1.00
12959;DHT22;6544;51.666;6.634;2023-07-02T02:49:01;16.60;1.00
12959;DHT22;6544;51.666;6.634;2023-07-02T02:51:28;16.70;1.00
12959;DHT22;6544;51.666;6.634;2023-07-02T02:53:55;16.70;54.50
12959;DHT22;6544;51.666;6.634;2023-07-02T02:56:22;16.70;1.00
12959;DHT22;6544;51.666;6.634;2023-07-02T02:58:49;16.70;1.00
12959;DHT22;6544;51.666;6.634;2023-07-02T03:01:16;16.70;1.00
12959;DHT22;6544;51.666;6.634;2023-07-02T03:03:44;16.70;1.00
12959;DHT22;6544;51.666;6.634;2023-07-02T03:06:12;16.70;1.00
12959;DHT22;6544;51.666;6.634;2023-07-02T03:08:40;16.60;1.00
12959;DHT22;6544;51.666;6.634;2023-07-02T03:11:07;16.50;1.00
12959;DHT22;6544;51.666;6.634;2023-07-02T03:13:34;16.50;1.00
12959;DHT22;6544;51.666;6.634;2023-07-02T03:16:01;16.60;1.00
12959;DHT22;6544;51.666;6.634;2023-07-02T03:18:27;16.60;1.00
12959;DHT22;6544;51.666;6.634;2023-07-02T03:20:56;16.60;1.00
12959;DHT22;6544;51.666;6.634;2023-07-02T03:23:23;16.70;1.00
12959;DHT22;6544;51.666;6.634;2023-07-02T03:25:49;16.80;1.00
12959;DHT22;6544;51.666;6.634;2023-07-02T03:28:16;16.80;1.00
12959;DHT22;6544;51.666;6.634;2023-07-02T03:30:43;16.80;1.00
12959;DHT22;6544;51.666;6.634;2023-07-02T03:33:10;16.90;1.00
12959;DHT22;6544;51.666;6.634;2023-07-02T03:35:37;16.80;1.00
12959;DHT22;6544;51.666;6.634;2023-07-02T03:38:06;16.80;1.00
12959;DHT22;6544;51.666;6.634;2023-07-02T03:40:32;16.80;1.00
12959;DHT22;6544;51.666;6.634;2023-07-02T03:42:59;16.80;1.00
12959;DHT22;6544;51.666;6.634;2023-07-02T03:45:26;16.70;1.00
12959;DHT22;6544;51.666;6.634;2023-07-02T03:47:53;16.70;1.00
12959;DHT22;6544;51.666;6.634;2023-07-02T03:50:20;16.70;1.00
12959;DHT22;6544;51.666;6.634;2023-07-02T03:52:48;16.60;1.00
12959;DHT22;6544;51.666;6.634;2023-07-02T03:55:17;16.60;1.00
12959;DHT22;6544;51.666;6.634;2023-07-02T03:57:44;16.80;1.00
12959;DHT22;6544;51.666;6.634;2023-07-02T04:00:11;16.80;1.00
12959;DHT22;6544;51.666;6.634;2023-07-02T04:02:38;16.80;1.00
12959;DHT22;6544;51.666;6.634;2023-07-02T04:05:05;16.90;1.00
12959;DHT22;6544;51.666;6.634;2023-07-02T04:07:32;16.90;1.00
12959;DHT22;6544;51.666;6.634;2023-07-02T04:09:59;16.90;1.00
12959;DHT22;6544;51.666;6.634;2023-07-02T04:12:28;16.90;1.00
12959;DHT22;6544;51.666;6.634;2023-07-02T04:14:54;17.10;1.00
12959;DHT22;6544;51.666;6.634;2023-07-02T04:17:21;17.10;1.00
12959;DHT22;6544;51.666;6.634;2023-07-02T04:19:48;17.10;1.00
12959;DHT22;6544;51.666;6.634;2023-07-02T04:22:15;17.00;1.00
12959;DHT22;6544;51.666;6.634;2023-07-02T04:24:43;17.10;1.00
12959;DHT22;6544;51.666;6.634;2023-07-02T04:27:10;17.20;1.00
12959;DHT22;6544;51.666;6.634;2023-07-02T04:29:40;17.10;1.00
12959;DHT22;6544;51.666;6.634;2023-07-02T04:32:07;17.10;1.00
12959;DHT22;6544;51.666;6.634;2023-07-02T04:34:34;17.20;1.00
12959;DHT22;6544;51.666;6.634;2023-07-02T04:37:02;17.30;1.00
12959;DHT22;6544;51.666;6.634;2023-07-02T04:39:28;17.20;1.00
12959;DHT22;6544;51.666;6.634;2023-07-02T04:41:55;17.30;1.00
12959;DHT22;6544;51.666;6.634;2023-07-02T04:44:22;17.30;1.00
12959;DHT22;6544;51.666;6.634;2023-07-02T04:46:57;17.30;1.00
12959;DHT22;6544;51.666;6.634;2023-07-02T04:49:24;17.30;1.00
12959;DHT22;6544;51.666;6.634;2023-07-02T04:51:51;17.20;1.00
12959;DHT22;6544;51.666;6.634;2023-07-02T04:54:19;17.30;1.00
12959;DHT22;6544;51.666;6.634;2023-07-02T04:56:47;17.40;1.00
12959;DHT22;6544;51.666;6.634;2023-07-02T04:59:14;17.40;1.00
12959;DHT22;6544;51.666;6.634;2023-07-02T05:01:41;17.20;96.40
12959;DHT22;6544;51.666;6.634;2023-07-02T05:04:11;17.20;99.90
12959;DHT22;6544;51.666;6.634;2023-07-02T05:06:38;17.20;99.90
12959;DHT22;6544;51.666;6.634;2023-07-02T05:09:05;17.30;99.90
12959;DHT22;6544;51.666;6.634;2023-07-02T05:11:32;17.40;88.90
12959;DHT22;6544;51.666;6.634;2023-07-02T05:13:59;17.20;99.90
12959;DHT22;6544;51.666;6.634;2023-07-02T05:16:26;17.10;99.90
12959;DHT22;6544;51.666;6.634;2023-07-02T05:18:53;16.90;99.90
12959;DHT22;6544;51.666;6.634;2023-07-02T05:21:21;17.00;99.90
12959;DHT22;6544;51.666;6.634;2023-07-02T05:23:49;17.10;99.90
12959;DHT22;6544;51.666;6.634;2023-07-02T05:26:15;17.30;99.90
12959;DHT22;6544;51.666;6.634;2023-07-02T05:28:42;17.30;99.90
12959;DHT22;6544;51.666;6.634;2023-07-02T05:31:09;17.30;99.90
12959;DHT22;6544;51.666;6.634;2023-07-02T05:33:38;17.30;89.20
12959;DHT22;6544;51.666;6.634;2023-07-02T05:36:05;17.30;22.10
12959;DHT22;6544;51.666;6.634;2023-07-02T05:38:33;17.50;1.00
12959;DHT22;6544;51.666;6.634;2023-07-02T05:41:01;17.30;1.00
12959;DHT22;6544;51.666;6.634;2023-07-02T05:43:28;17.30;36.10
12959;DHT22;6544;51.666;6.634;2023-07-02T05:45:58;17.40;6.50
12959;DHT22;6544;51.666;6.634;2023-07-02T05:48:25;17.30;1.00
12959;DHT22;6544;51.666;6.634;2023-07-02T05:50:52;17.20;1.00
12959;DHT22;6544;51.666;6.634;2023-07-02T05:53:19;17.10;1.00
12959;DHT22;6544;51.666;6.634;2023-07-02T05:55:48;17.10;1.00
12959;DHT22;6544;51.666;6.634;2023-07-02T05:58:15;17.10;1.00
12959;DHT22;6544;51.666;6.634;2023-07-02T06:00:42;17.20;1.00
12959;DHT22;6544;51.666;6.634;2023-07-02T06:03:14;17.20;1.00
12959;DHT22;6544;51.666;6.634;2023-07-02T06:05:46;17.20;1.00
12959;DHT22;6544;51.666;6.634;2023-07-02T06:08:13;17.20;1.00
12959;DHT22;6544;51.666;6.634;2023-07-02T06:10:40;17.30;1.00
12959;DHT22;6544;51.666;6.634;2023-07-02T06:13:08;17.30;1.00
12959;DHT22;6544;51.666;6.634;2023-07-02T06:15:35;17.20;1.00
12959;DHT22;6544;51.666;6.634;2023-07-02T06:18:02;17.30;1.00
12959;DHT22;6544;51.666;6.634;2023-07-02T06:20:29;17.30;1.00
12959;DHT22;6544;51.666;6.634;2023-07-02T06:22:56;17.40;1.00
12959;DHT22;6544;51.666;6.634;2023-07-02T06:25:23;17.40;1.00
12959;DHT22;6544;51.666;6.634;2023-07-02T06:27:50;17.40;1.00
12959;DHT22;6544;51.666;6.634;2023-07-02T06:30:19;17.30;1.00
12959;DHT22;6544;51.666;6.634;2023-07-02T06:32:46;17.50;1.00
12959;DHT22;6544;51.666;6.634;2023-07-02T06:35:13;17.40;1.00
12959;DHT22;6544;51.666;6.634;2023-07-02T06:37:40;17.50;1.00
12959;DHT22;6544;51.666;6.634;2023-07-02T06:40:07;17.40;1.00
12959;DHT22;6544;51.666;6.634;2023-07-02T06:42:34;17.60;1.00
12959;DHT22;6544;51.666;6.634;2023-07-02T06:45:02;17.50;1.00
12959;DHT22;6544;51.666;6.634;2023-07-02T06:47:30;17.60;1.00
12959;DHT22;6544;51.666;6.634;2023-07-02T06:49:57;17.50;1.00
12959;DHT22;6544;51.666;6.634;2023-07-02T06:52:25;17.70;1.00
12959;DHT22;6544;51.666;6.634;2023-07-02T06:54:51;17.80;1.00
12959;DHT22;6544;51.666;6.634;2023-07-02T06:57:18;17.80;1.00
12959;DHT22;6544;51.666;6.634;2023-07-02T06:59:45;17.90;1.00
12959;DHT22;6544;51.666;6.634;2023-07-02T07:02:12;17.80;1.00
12959;DHT22;6544;51.666;6.634;2023-07-02T07:04:40;17.90;1.00
12959;DHT22;6544;51.666;6.634;2023-07-02T07:07:07;18.00;1.00
12959;DHT22;6544;51.666;6.634;2023-07-02T07:09:34;18.00;1.00
12959;DHT22;6544;51.666;6.634;2023-07-02T07:12:01;18.10;1.00
12959;DHT22;6544;51.666;6.634;2023-07-02T07:14:28;18.10;1.00
12959;DHT22;6544;51.666;6.634;2023-07-02T07:16:55;18.10;1.00
12959;DHT22;6544;51.666;6.634;2023-07-02T07:19:22;18.10;1.00
12959;DHT22;6544;51.666;6.634;2023-07-02T07:21:50;18.20;1.00
12959;DHT22;6544;51.666;6.634;2023-07-02T07:24:17;18.10;1.00
12959;DHT22;6544;51.666;6.634;2023-07-02T07:26:44;18.20;1.00
12959;DHT22;6544;51.666;6.634;2023-07-02T07:29:11;18.20;1.00
12959;DHT22;6544;51.666;6.634;2023-07-02T07:31:38;18.00;1.00
12959;DHT22;6544;51.666;6.634;2023-07-02T07:34:05;18.30;1.00
12959;DHT22;6544;51.666;6.634;2023-07-02T07:36:32;18.40;1.00
12959;DHT22;6544;51.666;6.634;2023-07-02T07:39:00;18.60;1.00
12959;DHT22;6544;51.666;6.634;2023-07-02T07:41:27;18.40;1.00
12959;DHT22;6544;51.666;6.634;2023-07-02T07:43:54;18.30;1.00
12959;DHT22;6544;51.666;6.634;2023-07-02T07:46:21;18.40;1.00
12959;DHT22;6544;51.666;6.634;2023-07-02T07:48:47;18.40;1.00
12959;DHT22;6544;51.666;6.634;2023-07-02T07:51:14;18.50;1.00
12959;DHT22;6544;51.666;6.634;2023-07-02T07:53:41;18.20;1.00
12959;DHT22;6544;51.666;6.634;2023-07-02T07:56:10;18.40;1.00
12959;DHT22;6544;51.666;6.634;2023-07-02T07:58:36;18.30;1.00
12959;DHT22;6544;51.666;6.634;2023-07-02T08:01:03;18.10;1.00
12959;DHT22;6544;51.666;6.634;2023-07-02T08:03:30;18.10;1.00
12959;DHT22;6544;51.666;6.634;2023-07-02T08:05:57;18.30;1.00
12959;DHT22;6544;51.666;6.634;2023-07-02T08:08:24;18.50;1.00
12959;DHT22;6544;51.666;6.634;2023-07-02T08:10:51;18.60;1.00
12959;DHT22;6544;51.666;6.634;2023-07-02T08:13:20;18.80;99.90
12959;DHT22;6544;51.666;6.634;2023-07-02T08:15:47;18.80;99.90
12959;DHT22;6544;51.666;6.634;2023-07-02T08:18:14;18.60;99.90
12959;DHT22;6544;51.666;6.634;2023-07-02T08:20:40;18.70;99.90
12959;DHT22;6544;51.666;6.634;2023-07-02T08:23:07;18.90;99.90
12959;DHT22;6544;51.666;6.634;2023-07-02T08:25:35;18.70;99.90
12959;DHT22;6544;51.666;6.634;2023-07-02T08:28:02;18.70;99.90
12959;DHT22;6544;51.666;6.634;2023-07-02T08:30:30;18.40;99.90
12959;DHT22;6544;51.666;6.634;2023-07-02T08:32:57;18.60;99.90
12959;DHT22;6544;51.666;6.634;2023-07-02T08:35:24;18.40;99.90
12959;DHT22;6544;51.666;6.634;2023-07-02T08:37:51;18.50;99.90
12959;DHT22;6544;51.666;6.634;2023-07-02T08:40:18;18.80;99.90
12959;DHT22;6544;51.666;6.634;2023-07-02T08:42:46;18.90;99.90
12959;DHT22;6544;51.666;6.634;2023-07-02T08:45:14;18.90;99.90
12959;DHT22;6544;51.666;6.634;2023-07-02T08:47:43;19.00;99.90
12959;DHT22;6544;51.666;6.634;2023-07-02T08:50:11;19.10;99.90
12959;DHT22;6544;51.666;6.634;2023-07-02T08:52:38;19.10;99.90
12959;DHT22;6544;51.666;6.634;2023-07-02T08:55:06;19.20;99.90
12959;DHT22;6544;51.666;6.634;2023-07-02T08:57:34;19.40;99.90
12959;DHT22;6544;51.666;6.634;2023-07-02T09:00:06;19.30;99.90
12959;DHT22;6544;51.666;6.634;2023-07-02T09:02:35;19.20;99.90
12959;DHT22;6544;51.666;6.634;2023-07-02T09:05:04;19.40;99.90
12959;DHT22;6544;51.666;6.634;2023-07-02T09:07:30;19.70;99.90
12959;DHT22;6544;51.666;6.634;2023-07-02T09:09:57;19.50;99.90
12959;DHT22;6544;51.666;6.634;2023-07-02T09:12:25;19.40;99.90
12959;DHT22;6544;51.666;6.634;2023-07-02T09:14:57;19.40;99.90
12959;DHT22;6544;51.666;6.634;2023-07-02T09:17:30;19.50;99.90
12959;DHT22;6544;51.666;6.634;2023-07-02T09:19:58;19.50;99.90
12959;DHT22;6544;51.666;6.634;2023-07-02T09:22:27;19.90;99.90
12959;DHT22;6544;51.666;6.634;2023-07-02T09:24:56;20.00;99.90
12959;DHT22;6544;51.666;6.634;2023-07-02T09:27:33;19.50;99.90
12959;DHT22;6544;51.666;6.634;2023-07-02T09:30:07;19.40;99.90
12959;DHT22;6544;51.666;6.634;2023-07-02T09:32:34;19.40;99.90
12959;DHT22;6544;51.666;6.634;2023-07-02T09:35:01;19.20;99.90
12959;DHT22;6544;51.666;6.634;2023-07-02T09:37:31;19.00;99.90
12959;DHT22;6544;51.666;6.634;2023-07-02T09:39:58;19.10;99.90
12959;DHT22;6544;51.666;6.634;2023-07-02T09:42:28;19.30;99.90
12959;DHT22;6544;51.666;6.634;2023-07-02T09:44:57;19.50;99.90
12959;DHT22;6544;51.666;6.634;2023-07-02T09:47:26;19.40;99.90
12959;DHT22;6544;51.666;6.634;2023-07-02T09:49:55;19.70;99.90
12959;DHT22;6544;51.666;6.634;2023-07-02T09:52:22;20.10;99.90
12959;DHT22;6544;51.666;6.634;2023-07-02T09:54:51;20.40;99.90
12959;DHT22;6544;51.666;6.634;2023-07-02T09:57:18;20.30;99.90
12959;DHT22;6544;51.666;6.634;2023-07-02T09:59:45;20.40;99.90
12959;DHT22;6544;51.666;6.634;2023-07-02T10:02:13;20.40;99.90
12959;DHT22;6544;51.666;6.634;2023-07-02T10:04:40;20.40;99.90
12959;DHT22;6544;51.666;6.634;2023-07-02T10:07:11;19.90;99.90
12959;DHT22;6544;51.666;6.634;2023-07-02T10:09:40;20.00;99.90
12959;DHT22;6544;51.666;6.634;2023-07-02T10:12:20;19.80;99.90
12959;DHT22;6544;51.666;6.634;2023-07-02T10:14:49;19.80;99.90
12959;DHT22;6544;51.666;6.634;2023-07-02T10:17:26;19.80;99.90
12959;DHT22;6544;51.666;6.634;2023-07-02T10:19:57;19.50;99.90
12959;DHT22;6544;51.666;6.634;2023-07-02T10:22:25;19.60;99.90
12959;DHT22;6544;51.666;6.634;2023-07-02T10:24:53;19.90;99.90
12959;DHT22;6544;51.666;6.634;2023-07-02T10:27:34;20.20;99.90
12959;DHT22;6544;51.666;6.634;2023-07-02T10:30:02;20.10;99.90
12959;DHT22;6544;51.666;6.634;2023-07-02T10:32:30;20.20;99.90
12959;DHT22;6544;51.666;6.634;2023-07-02T10:34:58;20.30;99.90
12959;DHT22;6544;51.666;6.634;2023-07-02T10:37:35;20.40;99.90
12959;DHT22;6544;51.666;6.634;2023-07-02T10:40:03;20.40;99.90
12959;DHT22;6544;51.666;6.634;2023-07-02T10:42:33;20.20;99.90
12959;DHT22;6544;51.666;6.634;2023-07-02T10:45:00;20.10;99.90
12959;DHT22;6544;51.666;6.634;2023-07-02T10:47:28;20.20;99.90
12959;DHT22;6544;51.666;6.634;2023-07-02T10:49:56;20.60;99.90
12959;DHT22;6544;51.666;6.634;2023-07-02T10:52:23;20.90;99.90
12959;DHT22;6544;51.666;6.634;2023-07-02T10:54:50;20.90;99.90
12959;DHT22;6544;51.666;6.634;2023-07-02T10:57:19;20.60;99.90
12959;DHT22;6544;51.666;6.634;2023-07-02T10:59:48;20.70;99.90
12959;DHT22;6544;51.666;6.634;2023-07-02T11:02:15;21.00;99.90
12959;DHT22;6544;51.666;6.634;2023-07-02T11:04:42;21.00;99.90
12959;DHT22;6544;51.666;6.634;2023-07-02T11:07:10;20.90;99.90
12959;DHT22;6544;51.666;6.634;2023-07-02T11:09:37;21.00;99.90
12959;DHT22;6544;51.666;6.634;2023-07-02T11:12:05;21.20;99.90
12959;DHT22;6544;51.666;6.634;2023-07-02T11:14:34;21.00;99.90
12959;DHT22;6544;51.666;6.634;2023-07-02T11:17:04;20.90;99.90
12959;DHT22;6544;51.666;6.634;2023-07-02T11:19:32;20.50;99.90
12959;DHT22;6544;51.666;6.634;2023-07-02T11:21:59;20.80;99.90
12959;DHT22;6544;51.666;6.634;2023-07-02T11:24:32;20.90;99.90
12959;DHT22;6544;51.666;6.634;2023-07-02T11:27:01;20.70;99.90
12959;DHT22;6544;51.666;6.634;2023-07-02T11:29:29;20.80;99.90
12959;DHT22;6544;51.666;6.634;2023-07-02T11:32:06;21.10;99.90
12959;DHT22;6544;51.666;6.634;2023-07-02T11:34:35;21.10;99.90
12959;DHT22;6544;51.666;6.634;2023-07-02T11:37:02;20.60;99.90
12959;DHT22;6544;51.666;6.634;2023-07-02T11:39:30;20.20;99.90
12959;DHT22;6544;51.666;6.634;2023-07-02T11:41:56;20.50;99.90
12959;DHT22;6544;51.666;6.634;2023-07-02T11:44:23;20.40;99.90
12959;DHT22;6544;51.666;6.634;2023-07-02T11:46:50;20.80;99.90
12959;DHT22;6544;51.666;6.634;2023-07-02T11:49:18;20.90;99.90
12959;DHT22;6544;51.666;6.634;2023-07-02T11:51:45;21.00;99.90
12959;DHT22;6544;51.666;6.634;2023-07-02T11:54:14;21.20;99.90
12959;DHT22;6544;51.666;6.634;2023-07-02T11:56:41;21.50;99.90
12959;DHT22;6544;51.666;6.634;2023-07-02T11:59:09;20.90;99.90
12959;DHT22;6544;51.666;6.634;2023-07-02T12:01:36;20.60;99.90
12959;DHT22;6544;51.666;6.634;2023-07-02T12:04:03;20.80;99.90
12959;DHT22;6544;51.666;6.634;2023-07-02T12:06:32;20.80;99.90
12959;DHT22;6544;51.666;6.634;2023-07-02T12:08:59;20.70;99.90
12959;DHT22;6544;51.666;6.634;2023-07-02T12:11:26;20.70;99.90
12959;DHT22;6544;51.666;6.634;2023-07-02T12:13:53;21.00;99.90
12959;DHT22;6544;51.666;6.634;2023-07-02T12:16:20;21.30;99.90
12959;DHT22;6544;51.666;6.634;2023-07-02T12:18:47;21.70;99.90
12959;DHT22;6544;51.666;6.634;2023-07-02T12:21:13;21.80;99.90
12959;DHT22;6544;51.666;6.634;2023-07-02T12:23:42;21.90;99.90
12959;DHT22;6544;51.666;6.634;2023-07-02T12:26:09;22.20;99.90
12959;DHT22;6544;51.666;6.634;2023-07-02T12:28:36;22.10;99.90
12959;DHT22;6544;51.666;6.634;2023-07-02T12:31:03;22.20;99.90
12959;DHT22;6544;51.666;6.634;2023-07-02T12:33:30;21.30;99.90
12959;DHT22;6544;51.666;6.634;2023-07-02T12:35:57;20.90;99.90
12959;DHT22;6544;51.666;6.634;2023-07-02T12:38:25;20.80;99.90
12959;DHT22;6544;51.666;6.634;2023-07-02T12:40:53;20.50;99.90
12959;DHT22;6544;51.666;6.634;2023-07-02T12:43:20;20.80;99.90
12959;DHT22;6544;51.666;6.634;2023-07-02T12:45:47;21.00;99.90
12959;DHT22;6544;51.666;6.634;2023-07-02T12:48:14;21.50;99.90
12959;DHT22;6544;51.666;6.634;2023-07-02T12:50:41;22.00;99.90
12959;DHT22;6544;51.666;6.634;2023-07-02T12:53:08;22.00;99.90
12959;DHT22;6544;51.666;6.634;2023-07-02T12:55:35;21.50;99.90
12959;DHT22;6544;51.666;6.634;2023-07-02T12:58:03;21.50;99.90
12959;DHT22;6544;51.666;6.634;2023-07-02T13:00:30;21.50;99.90
12959;DHT22;6544;51.666;6.634;2023-07-02T13:02:57;21.60;99.90
12959;DHT22;6544;51.666;6.634;2023-07-02T13:05:24;21.60;99.90
12959;DHT22;6544;51.666;6.634;2023-07-02T13:07:51;21.70;99.90
12959;DHT22;6544;51.666;6.634;2023-07-02T13:10:17;21.40;99.90
12959;DHT22;6544;51.666;6.634;2023-07-02T13:12:44;21.70;99.90
12959;DHT22;6544;51.666;6.634;2023-07-02T13:15:12;21.90;99.90
12959;DHT22;6544;51.666;6.634;2023-07-02T13:17:39;22.00;99.90
12959;DHT22;6544;51.666;6.634;2023-07-02T13:20:09;22.30;99.90
12959;DHT22;6544;51.666;6.634;2023-07-02T13:22:36;21.80;99.90
12959;DHT22;6544;51.666;6.634;2023-07-02T13:25:04;22.10;99.90
12959;DHT22;6544;51.666;6.634;2023-07-02T13:27:32;22.60;99.90
12959;DHT22;6544;51.666;6.634;2023-07-02T13:29:59;22.50;99.90
12959;DHT22;6544;51.666;6.634;2023-07-02T13:32:27;22.50;99.90
12959;DHT22;6544;51.666;6.634;2023-07-02T13:34:54;22.70;99.90
12959;DHT22;6544;51.666;6.634;2023-07-02T13:37:21;22.60;99.90
12959;DHT22;6544;51.666;6.634;2023-07-02T13:39:49;22.70;99.90
12959;DHT22;6544;51.666;6.634;2023-07-02T13:42:16;22.70;99.90
12959;DHT22;6544;51.666;6.634;2023-07-02T13:44:43;21.90;99.90
12959;DHT22;6544;51.666;6.634;2023-07-02T13:47:10;21.60;99.90
12959;DHT22;6544;51.666;6.634;2023-07-02T13:49:39;22.10;99.90
12959;DHT22;6544;51.666;6.634;2023-07-02T13:52:06;22.10;99.90
12959;DHT22;6544;51.666;6.634;2023-07-02T13:54:33;21.90;99.90
12959;DHT22;6544;51.666;6.634;2023-07-02T13:57:00;22.10;99.90
12959;DHT22;6544;51.666;6.634;2023-07-02T13:59:28;22.00;99.90
12959;DHT22;6544;51.666;6.634;2023-07-02T14:01:55;21.30;99.90
12959;DHT22;6544;51.666;6.634;2023-07-02T14:04:22;21.30;99.90
12959;DHT22;6544;51.666;6.634;2023-07-02T14:06:49;21.40;99.90
12959;DHT22;6544;51.666;6.634;2023-07-02T14:09:16;21.10;99.90
12959;DHT22;6544;51.666;6.634;2023-07-02T14:11:43;21.30;99.90
12959;DHT22;6544;51.666;6.634;2023-07-02T14:14:10;21.70;99.90
12959;DHT22;6544;51.666;6.634;2023-07-02T14:16:38;21.90;99.90
12959;DHT22;6544;51.666;6.634;2023-07-02T14:19:06;21.70;99.90
12959;DHT22;6544;51.666;6.634;2023-07-02T14:21:33;21.40;99.90
12959;DHT22;6544;51.666;6.634;2023-07-02T14:24:00;21.10;99.90
12959;DHT22;6544;51.666;6.634;2023-07-02T14:26:27;21.50;99.90
12959;DHT22;6544;51.666;6.634;2023-07-02T14:28:55;21.80;99.90
12959;DHT22;6544;51.666;6.634;2023-07-02T14:31:22;21.60;99.90
12959;DHT22;6544;51.666;6.634;2023-07-02T14:33:50;21.40;99.90
12959;DHT22;6544;51.666;6.634;2023-07-02T14:36:17;21.10;99.90
12959;DHT22;6544;51.666;6.634;2023-07-02T14:38:44;20.90;99.90
12959;DHT22;6544;51.666;6.634;2023-07-02T14:41:11;20.90;99.90
12959;DHT22;6544;51.666;6.634;2023-07-02T14:43:38;21.00;99.90
12959;DHT22;6544;51.666;6.634;2023-07-02T14:46:08;21.30;99.90
12959;DHT22;6544;51.666;6.634;2023-07-02T14:48:35;21.30;99.90
12959;DHT22;6544;51.666;6.634;2023-07-02T14:51:03;21.50;99.90
12959;DHT22;6544;51.666;6.634;2023-07-02T14:53:31;21.60;99.90
12959;DHT22;6544;51.666;6.634;2023-07-02T14:55:59;21.70;99.90
12959;DHT22;6544;51.666;6.634;2023-07-02T14:58:28;21.40;99.90
12959;DHT22;6544;51.666;6.634;2023-07-02T15:00:57;21.30;99.90
12959;DHT22;6544;51.666;6.634;2023-07-02T15:03:25;21.30;99.90
12959;DHT22;6544;51.666;6.634;2023-07-02T15:05:52;21.50;99.90
12959;DHT22;6544;51.666;6.634;2023-07-02T15:08:21;21.60;99.90
12959;DHT22;6544;51.666;6.634;2023-07-02T15:10:50;21.60;99.90
12959;DHT22;6544;51.666;6.634;2023-07-02T15:13:18;21.60;99.90
12959;DHT22;6544;51.666;6.634;2023-07-02T15:15:45;21.60;99.90
12959;DHT22;6544;51.666;6.634;2023-07-02T15:18:13;21.70;99.90
12959;DHT22;6544;51.666;6.634;2023-07-02T15:20:40;21.60;99.90
12959;DHT22;6544;51.666;6.634;2023-07-02T15:23:07;21.80;99.90
12959;DHT22;6544;51.666;6.634;2023-07-02T15:25:35;21.90;99.90
12959;DHT22;6544;51.666;6.634;2023-07-02T15:28:02;21.90;99.90
12959;DHT22;6544;51.666;6.634;2023-07-02T15:30:30;21.80;99.90
12959;DHT22;6544;51.666;6.634;2023-07-02T15:32:57;21.70;99.90
12959;DHT22;6544;51.666;6.634;2023-07-02T15:35:24;21.90;99.90
12959;DHT22;6544;51.666;6.634;2023-07-02T15:37:51;22.00;99.90
12959;DHT22;6544;51.666;6.634;2023-07-02T15:40:18;22.00;99.90
12959;DHT22;6544;51.666;6.634;2023-07-02T15:42:46;22.10;99.90
12959;DHT22;6544;51.666;6.634;2023-07-02T15:45:13;21.80;99.90
12959;DHT22;6544;51.666;6.634;2023-07-02T15:47:40;21.80;99.90
12959;DHT22;6544;51.666;6.634;2023-07-02T15:50:08;21.90;99.90
12959;DHT22;6544;51.666;6.634;2023-07-02T15:52:35;21.70;99.90
12959;DHT22;6544;51.666;6.634;2023-07-02T15:55:02;21.60;99.90